Steptoe Valley WMA, Nevada Weather observations

Data are for 10 minute period ending at time listed.
 Day   Time   Solar   Ave.   Ave.  Ave.  Vector  Max.   Baro.   Total    
  of    of     Rad.   Air    Rel.  Wind   Wind   Wind  Press.  Precip.   
Year   Day            Temp.  Hum.  Speed  Dir.   Gust                    
2014   (PST)  Kw/m2    F      %     mph   deg.    mph    mb.     in.     
-------------------------------------------------------------------------
 208    2:00   0.00   54.9    57    3.3   126     4.6   808.2    0.00 
 208    2:10   0.00   55.5    53    3.6   114     5.5   808.2    0.00 
 208    2:20   0.00   52.3    63    2.5   166     5.0   808.2    0.00 
 208    2:30   0.00   48.9    71    2.1   175     5.2   808.2    0.00 
 208    2:40   0.00   46.4    75    3.0   171     4.6   808.3    0.00 
 208    2:50   0.00   47.4    74    2.6   147     6.7   808.3    0.00 
 208    3:00   0.00   52.3    61    3.1   164     7.6   808.4    0.00 
 208    3:10   0.00   48.5    70    2.9   171     4.3   808.4    0.00 
 208    3:20   0.00   47.9    74    2.6   171     3.8   808.5    0.00 
 208    3:30   0.00   47.8    75    3.3   172     4.7   808.6    0.00 
 208    3:40   0.00   48.3    73    3.2   175     5.3   808.6    0.00 
 208    3:50   0.00   48.9    72    1.1   162     2.0   808.7    0.00 
 208    4:00   0.00   50.4    68    1.8   162     3.5   808.8    0.00 
 208    4:10   0.00   51.7    66    3.7   172     5.9   808.8    0.00 
 208    4:20   0.00   54.3    61    2.6   188     4.5   808.8    0.00 
 208    4:30   0.00   52.8    62    3.1   162     4.2   808.8    0.00 
 208    4:40   0.00   52.0    67    2.0   187     3.9   808.9    0.00 
 208    4:50   0.01   51.2    68    3.1   177     4.8   809.0    0.00 
 208    5:00   0.01   51.3    68    2.4   180     4.3   809.0    0.00 
 208    5:10   0.02   50.8    69    1.2   176     2.4   809.1    0.00 
 208    5:20   0.03   50.2    69    2.5   164     3.9   809.1    0.00 
 208    5:30   0.04   50.1    70    3.8   167     5.0   809.1    0.00 
 208    5:40   0.06   52.2    67    3.5   175     4.2   809.1    0.00 
 208    5:50   0.13   53.7    66    2.1   188     3.9   809.1    0.00 
 208    6:00   0.13   55.8    63    0.2   116     0.9   809.0    0.00 
 208    6:10   0.11   57.6    62    0.0     0     0.0   809.0    0.00 
 208    6:20   0.14   58.2    66    1.3   168     4.0   809.1    0.00 
 208    6:30   0.23   59.8    60    3.0   183     5.5   809.2    0.00 
 208    6:40   0.20   61.4    55    2.6   174     4.7   809.3    0.00 
 208    6:50   0.21   63.2    52    0.9   184     2.3   809.4    0.00 
 208    7:00   0.20   65.2    44    3.1   158     5.3   809.5    0.00 
 208    7:10   0.25   66.7    40    4.6   158     6.4   809.5    0.00 
 208    7:20   0.40   69.3    37    4.0   170     5.6   809.5    0.00 
 208    7:30   0.41   71.9    38    3.2   199     4.9   809.6    0.00 
 208    7:40   0.26   71.4    42    2.5   212     3.9   809.8    0.00 
 208    7:50   0.28   70.7    47    2.4   217     3.8   810.0    0.00 
 208    8:00   0.30   71.0    44    2.7   211     4.0   810.0    0.00 
 208    8:10   0.37   72.2    41    2.3   227     3.5   810.0    0.00 
 208    8:20   0.48   73.1    38    2.0   254     3.2   810.0    0.00 
 208    8:30   0.46   73.7    36    1.6   296     3.1   810.0    0.00 
 208    8:40   0.69   75.8    32    1.2    21     3.2   809.9    0.00 
 208    8:50   0.61   78.7    29    1.0    65     2.3   809.9    0.00 
 208    9:00   0.51   79.1    28    1.1   329     3.0   809.8    0.00 
 208    9:10   0.47   78.9    28    1.5   328     3.1   809.8    0.00 
 208    9:20   0.49   80.1    28    0.8   244     1.8   809.7    0.00 
 208    9:30   0.53   81.6    26    1.5   217     2.8   809.6    0.00 
 208    9:40   0.46   82.5    26    1.5   195     3.1   809.5    0.00 
 208    9:50   0.44   82.8    24    1.3   151     3.1   809.5    0.00 
 208   10:00   0.58   83.0    27    2.5   198     5.3   809.5    0.00 
 208   10:10   0.58   83.2    25    1.4   230     3.4   809.4    0.00 
 208   10:20   0.60   83.2    23    1.8   275     3.7   809.2    0.00 
 208   10:30   0.73   83.2    26    4.2   260     7.5   809.1    0.00 
 208   10:40   1.04   84.3    25    4.6   242     7.2   809.0    0.00 
 208   10:50   1.07   86.6    22    3.0   236     6.2   808.9    0.00 
 208   11:00   0.37   84.9    23    4.0   225     8.8   808.7    0.00 
 208   11:10   0.44   83.3    22    6.9   189    13.1   808.6    0.00 
 208   11:20   0.38   83.7    22    4.5   181    11.0   808.6    0.00 
 208   11:30   0.52   82.9    24    6.6   178    10.2   808.6    0.00 
 208   11:40   0.38   82.8    26    5.9   200    11.2   808.4    0.00 
 208   11:50   0.40   82.0    30    3.0   230     5.8   808.4    0.00 
 208   12:00   0.60   83.8    24    3.2   201    10.5   808.3    0.00 
 208   12:10   0.79   86.1    21    3.2   218     7.2   808.3    0.00 
 208   12:20   0.90   86.6    20    4.9   212    12.9   808.1    0.00 
 208   12:30   0.96   87.4    23    4.8   217     8.8   808.0    0.00 
 208   12:40   0.74   85.9    22    8.3   189    12.7   807.9    0.00 
 208   12:50   0.86   86.0    26    5.6   218    13.2   807.8    0.00 
 208   13:00   1.08   88.4    22    6.2   208    10.6   807.6    0.00 
 208   13:10   0.95   88.2    20    6.3   238    14.5   807.4    0.00 
 208   13:20   1.08   88.9    20    4.3   208     8.8   807.4    0.00 
 208   13:30   0.93   89.2    20    7.6   197    16.6   807.1    0.00 
 208   13:40   0.76   88.1    21    9.0   180    17.9   807.1    0.00 
 208   13:50   0.54   87.0    18    7.3   171    13.4   807.1    0.00 
 208   14:00   0.63   87.0    22    4.9   192     9.7   807.0    0.00 
 208   14:10   0.34   85.0    22   10.0   181    16.2   807.0    0.00 
 208   14:20   0.26   81.8    26    9.2   188    13.9   807.0    0.00 
 208   14:30   0.29   80.5    28    7.4   197    11.8   807.1    0.00 
 208   14:40   0.28   80.8    30    4.9   220     8.0   807.3    0.00 
 208   14:50   0.44   80.0    30   11.0   323    23.8   807.5    0.00 
 208   15:00   0.78   81.7    27   19.8   348    27.2   807.3    0.00 
 208   15:10   0.69   82.6    26   15.0   353    23.6   807.6    0.00 
 208   15:20   0.40   81.4    25    9.4   349    15.9   807.4    0.00 
 208   15:30   0.49   82.6    23    6.2     9    11.9   807.3    0.00 
 208   15:40   0.31   82.2    25    6.3   338    11.5   807.3    0.00 
 208   15:50   0.25   81.2    30    6.0   323     9.7   807.3    0.00 
 208   16:00   0.18   79.9    30    5.9   330     8.4   807.5    0.00 
 208   16:10   0.15   77.4    34    9.3   323    21.2   807.5    0.00 
 208   16:20   0.10   76.2    33   12.0   329    18.5   807.8    0.00 
 208   16:30   0.05   74.2    36   14.1   304    24.3   808.5    0.00 
 208   16:40   0.04   72.5    39   12.2   295    21.3   809.0    0.00 
 208   16:50   0.03   71.7    40   11.1   304    18.2   809.2    0.00 
 208   17:00   0.02   71.2    41    5.8   291    11.5   809.8    0.00 
 208   17:10   0.02   71.0    41    3.5   277     7.5   810.1    0.00 
 208   17:20   0.02   69.7    49    5.3   250    13.2   810.4    0.00 
 208   17:30   0.03   65.6    63    3.8   294     7.2   810.4    0.00 
 208   17:40   0.03   64.2    70    4.8   341     7.7   810.1    0.00 
 208   17:50   0.04   64.6    66    6.2   348     9.8   809.9    0.00 
 208   18:00   0.04   66.7    57    7.7     5    11.3   810.1    0.00 
 208   18:10   0.03   67.2    54    9.5   349    15.1   810.3    0.00 
 208   18:20   0.02   65.8    59    7.6   347    13.4   810.3    0.00 
 208   18:30   0.02   65.3    59    6.1   359     8.5   810.3    0.00 
 208   18:40   0.01   65.9    58    5.7     4     8.8   810.3    0.00 
 208   18:50   0.01   66.5    57    5.6     2     8.4   810.4    0.00 
 208   19:00   0.00   64.5    64    5.8   352     8.5   810.5    0.00 
 208   19:10   0.00   64.6    63    6.4   359     9.1   810.4    0.00 
 208   19:20   0.00   64.0    65    5.9   350     8.6   810.4    0.00 
 208   19:30   0.00   63.4    66    7.9   344    11.9   810.2    0.00 
 208   19:40   0.00   62.8    69    6.7   343    10.8   810.2    0.00 
 208   19:50   0.00   61.4    75    1.7   193     5.6   810.3    0.00 
 208   20:00   0.00   61.1    75    3.9   305     7.6   810.5    0.00 
 208   20:10   0.00   62.6    67    7.6   326    16.6   810.5    0.00 
 208   20:20   0.00   62.9    66    6.4   353     9.2   810.3    0.00 
 208   20:30   0.00   63.4    64    5.7   340     9.2   810.3    0.00 
 208   20:40   0.00   61.8    70    4.3   307     7.6   810.3    0.00 
 208   20:50   0.00   61.8    67    1.6   319     4.9   810.3    0.00 
 208   21:00   0.00   62.8    64    2.4   128     4.3   810.4    0.00 
 208   21:10   0.00   63.4    62    2.4   137     3.8   810.3    0.00 
 208   21:20   0.00   63.7    61    3.3   144     4.6   810.3    0.00 
 208   21:30   0.00   63.5    62    4.5   115     5.6   810.3    0.00 
 208   21:40   0.00   63.3    62    5.1   118     7.0   810.2    0.00 
 208   21:50   0.00   63.4    62    5.5   148     7.7   810.3    0.00 
 208   22:00   0.00   61.6    68    5.0   171     7.2   810.3    0.00 
 208   22:10   0.00   62.7    65    6.4   144     9.1   810.2    0.00 
 208   22:20   0.00   63.1    63    6.1   136     8.1   810.3    0.00 
 208   22:30   0.00   63.4    62    5.5   142     7.1   810.3    0.00 
 208   22:40   0.00   62.5    65    3.4   160     5.3   810.4    0.00 
 208   22:50   0.00   60.4    72    1.8   168     3.3   810.3    0.00 
 208   23:00   0.00   59.3    75    2.0   170     3.1   810.3    0.00 
 208   23:10   0.00   58.7    77    1.5   161     2.6   810.1    0.00 
 208   23:20   0.00   58.5    76    1.2    27     2.3   810.0    0.00 
 208   23:30   0.00   58.7    75    2.6   181     4.2   809.7    0.00 
 208   23:40   0.00   57.1    79    3.7   168     5.3   809.5    0.00 
 208   23:50   0.00   56.6    82    4.0   170     5.7   809.4    0.00 
 209    0:00   0.00   55.8    82    1.4   156     3.1   809.3    0.00 
 209    0:10   0.00   56.7    81    2.2   198     6.1   809.2    0.00 
 209    0:20   0.00   58.2    78    2.0   161     2.9   809.3    0.00 
 209    0:30   0.00   57.9    78    1.8   161     3.4   809.3    0.00 
 209    0:40   0.00   57.8    79    1.7   163     3.0   809.3    0.00 
 209    0:50   0.00   59.6    70    5.0    48     8.3   809.4    0.00 
 209    1:00   0.00   61.2    65    3.5    54     5.6   809.4    0.00 
 209    1:10   0.00   61.9    63    3.0    29     4.6   809.4    0.00 
 209    1:20   0.00   59.8    68    0.3   342     3.0   809.3    0.00 
 209    1:30   0.00   58.7    72    1.2   180     2.1   809.3    0.00 
 209    1:40   0.00   57.2    78    2.9   163     4.0   809.3    0.00 
 209    1:50   0.00   57.1    77    2.7   162     3.7   809.3    0.00 

Return to Steptoe Valley WMA graphs page.


Western Regional Climate Center,wrcc@dri.edu